sensor_id;sensor_type;location;lat;lon;timestamp;P1;durP1;ratioP1;P2;durP2;ratioP2
59786;SDS011;45672;51.612;5.536;2023-08-21T00:01:51;6.88;;;2.00;;
59786;SDS011;45672;51.612;5.536;2023-08-21T00:04:17;4.80;;;1.90;;
59786;SDS011;45672;51.612;5.536;2023-08-21T00:06:42;9.90;;;2.20;;
59786;SDS011;45672;51.612;5.536;2023-08-21T00:09:08;8.85;;;2.50;;
59786;SDS011;45672;51.612;5.536;2023-08-21T00:11:34;5.22;;;2.10;;
59786;SDS011;45672;51.612;5.536;2023-08-21T00:14:00;8.27;;;2.38;;
59786;SDS011;45672;51.612;5.536;2023-08-21T00:16:25;5.15;;;2.05;;
59786;SDS011;45672;51.612;5.536;2023-08-21T00:18:51;6.45;;;2.22;;
59786;SDS011;45672;51.612;5.536;2023-08-21T00:21:18;5.78;;;2.42;;
59786;SDS011;45672;51.612;5.536;2023-08-21T00:23:44;8.30;;;2.55;;
59786;SDS011;45672;51.612;5.536;2023-08-21T00:26:09;5.68;;;2.03;;
59786;SDS011;45672;51.612;5.536;2023-08-21T00:28:34;5.22;;;2.10;;
59786;SDS011;45672;51.612;5.536;2023-08-21T00:31:00;7.88;;;2.50;;
59786;SDS011;45672;51.612;5.536;2023-08-21T00:33:27;7.15;;;2.47;;
59786;SDS011;45672;51.612;5.536;2023-08-21T00:35:52;6.45;;;2.30;;
59786;SDS011;45672;51.612;5.536;2023-08-21T00:38:17;4.30;;;2.38;;
59786;SDS011;45672;51.612;5.536;2023-08-21T00:40:42;5.22;;;2.42;;
59786;SDS011;45672;51.612;5.536;2023-08-21T00:43:08;5.47;;;2.17;;
59786;SDS011;45672;51.612;5.536;2023-08-21T00:45:33;5.57;;;2.42;;
59786;SDS011;45672;51.612;5.536;2023-08-21T00:47:59;4.25;;;2.03;;
59786;SDS011;45672;51.612;5.536;2023-08-21T00:50:24;8.30;;;2.22;;
59786;SDS011;45672;51.612;5.536;2023-08-21T00:52:50;4.05;;;2.25;;
59786;SDS011;45672;51.612;5.536;2023-08-21T00:55:15;5.80;;;2.70;;
59786;SDS011;45672;51.612;5.536;2023-08-21T00:57:42;10.70;;;2.47;;
59786;SDS011;45672;51.612;5.536;2023-08-21T01:00:08;9.32;;;2.40;;
59786;SDS011;45672;51.612;5.536;2023-08-21T01:02:37;6.30;;;2.28;;
59786;SDS011;45672;51.612;5.536;2023-08-21T01:05:03;5.28;;;2.20;;
59786;SDS011;45672;51.612;5.536;2023-08-21T01:07:30;7.38;;;2.33;;
59786;SDS011;45672;51.612;5.536;2023-08-21T01:10:03;5.87;;;2.43;;
59786;SDS011;45672;51.612;5.536;2023-08-21T01:12:37;7.80;;;2.28;;
59786;SDS011;45672;51.612;5.536;2023-08-21T01:15:13;6.20;;;2.53;;
59786;SDS011;45672;51.612;5.536;2023-08-21T01:17:39;5.97;;;2.30;;
59786;SDS011;45672;51.612;5.536;2023-08-21T01:20:06;5.82;;;2.30;;
59786;SDS011;45672;51.612;5.536;2023-08-21T01:22:37;5.38;;;2.40;;
59786;SDS011;45672;51.612;5.536;2023-08-21T01:25:04;4.63;;;2.15;;
59786;SDS011;45672;51.612;5.536;2023-08-21T01:27:30;7.65;;;2.42;;
59786;SDS011;45672;51.612;5.536;2023-08-21T01:29:56;4.95;;;2.10;;
59786;SDS011;45672;51.612;5.536;2023-08-21T01:35:10;4.10;;;2.25;;
59786;SDS011;45672;51.612;5.536;2023-08-21T01:37:36;4.80;;;2.78;;
59786;SDS011;45672;51.612;5.536;2023-08-21T01:40:02;6.15;;;2.22;;
59786;SDS011;45672;51.612;5.536;2023-08-21T01:42:28;7.55;;;2.90;;
59786;SDS011;45672;51.612;5.536;2023-08-21T01:44:54;8.50;;;2.95;;
59786;SDS011;45672;51.612;5.536;2023-08-21T01:47:19;5.22;;;2.67;;
59786;SDS011;45672;51.612;5.536;2023-08-21T01:49:44;8.10;;;3.00;;
59786;SDS011;45672;51.612;5.536;2023-08-21T01:52:10;6.40;;;2.53;;
59786;SDS011;45672;51.612;5.536;2023-08-21T01:54:35;7.97;;;2.78;;
59786;SDS011;45672;51.612;5.536;2023-08-21T01:57:01;4.95;;;2.50;;
59786;SDS011;45672;51.612;5.536;2023-08-21T01:59:26;9.68;;;2.85;;
59786;SDS011;45672;51.612;5.536;2023-08-21T02:01:51;8.38;;;2.85;;
59786;SDS011;45672;51.612;5.536;2023-08-21T02:04:17;9.82;;;2.92;;
59786;SDS011;45672;51.612;5.536;2023-08-21T02:06:42;6.43;;;3.15;;
59786;SDS011;45672;51.612;5.536;2023-08-21T02:09:09;6.82;;;3.00;;
59786;SDS011;45672;51.612;5.536;2023-08-21T02:11:35;13.38;;;2.95;;
59786;SDS011;45672;51.612;5.536;2023-08-21T02:14:00;8.98;;;3.20;;
59786;SDS011;45672;51.612;5.536;2023-08-21T02:16:26;8.45;;;3.10;;
59786;SDS011;45672;51.612;5.536;2023-08-21T02:18:51;9.68;;;3.45;;
59786;SDS011;45672;51.612;5.536;2023-08-21T02:21:16;8.38;;;3.20;;
59786;SDS011;45672;51.612;5.536;2023-08-21T02:23:42;5.32;;;3.40;;
59786;SDS011;45672;51.612;5.536;2023-08-21T02:26:07;4.05;;;3.05;;
59786;SDS011;45672;51.612;5.536;2023-08-21T02:28:32;8.57;;;3.70;;
59786;SDS011;45672;51.612;5.536;2023-08-21T02:30:57;7.55;;;3.38;;
59786;SDS011;45672;51.612;5.536;2023-08-21T02:33:23;8.43;;;3.50;;
59786;SDS011;45672;51.612;5.536;2023-08-21T02:35:48;6.82;;;3.40;;
59786;SDS011;45672;51.612;5.536;2023-08-21T02:38:13;6.15;;;3.42;;
59786;SDS011;45672;51.612;5.536;2023-08-21T02:40:39;10.73;;;3.65;;
59786;SDS011;45672;51.612;5.536;2023-08-21T02:43:04;7.97;;;3.70;;
59786;SDS011;45672;51.612;5.536;2023-08-21T02:45:30;8.50;;;3.80;;
59786;SDS011;45672;51.612;5.536;2023-08-21T02:47:55;6.60;;;3.58;;
59786;SDS011;45672;51.612;5.536;2023-08-21T02:50:21;7.88;;;4.00;;
59786;SDS011;45672;51.612;5.536;2023-08-21T02:52:46;11.38;;;3.22;;
59786;SDS011;45672;51.612;5.536;2023-08-21T02:55:11;7.20;;;3.70;;
59786;SDS011;45672;51.612;5.536;2023-08-21T02:57:37;6.03;;;3.65;;
59786;SDS011;45672;51.612;5.536;2023-08-21T03:00:02;8.93;;;4.07;;
59786;SDS011;45672;51.612;5.536;2023-08-21T03:02:29;8.82;;;4.03;;
59786;SDS011;45672;51.612;5.536;2023-08-21T03:04:54;8.25;;;3.85;;
59786;SDS011;45672;51.612;5.536;2023-08-21T03:07:19;8.75;;;4.10;;
59786;SDS011;45672;51.612;5.536;2023-08-21T03:09:45;10.57;;;4.85;;
59786;SDS011;45672;51.612;5.536;2023-08-21T03:12:14;7.88;;;4.03;;
59786;SDS011;45672;51.612;5.536;2023-08-21T03:14:39;6.57;;;4.00;;
59786;SDS011;45672;51.612;5.536;2023-08-21T03:17:05;9.15;;;4.07;;
59786;SDS011;45672;51.612;5.536;2023-08-21T03:19:30;10.30;;;4.53;;
59786;SDS011;45672;51.612;5.536;2023-08-21T03:21:56;9.55;;;3.97;;
59786;SDS011;45672;51.612;5.536;2023-08-21T03:24:21;11.27;;;4.07;;
59786;SDS011;45672;51.612;5.536;2023-08-21T03:26:46;10.02;;;4.25;;
59786;SDS011;45672;51.612;5.536;2023-08-21T03:29:12;10.85;;;4.50;;
59786;SDS011;45672;51.612;5.536;2023-08-21T03:31:38;11.70;;;4.60;;
59786;SDS011;45672;51.612;5.536;2023-08-21T03:34:03;7.50;;;4.10;;
59786;SDS011;45672;51.612;5.536;2023-08-21T03:36:29;7.00;;;3.95;;
59786;SDS011;45672;51.612;5.536;2023-08-21T03:39:00;8.25;;;4.22;;
59786;SDS011;45672;51.612;5.536;2023-08-21T03:41:26;12.90;;;4.40;;
59786;SDS011;45672;51.612;5.536;2023-08-21T03:43:52;6.97;;;4.05;;
59786;SDS011;45672;51.612;5.536;2023-08-21T03:46:17;7.22;;;4.40;;
59786;SDS011;45672;51.612;5.536;2023-08-21T03:48:43;8.55;;;4.38;;
59786;SDS011;45672;51.612;5.536;2023-08-21T03:51:08;8.15;;;4.53;;
59786;SDS011;45672;51.612;5.536;2023-08-21T03:53:34;8.98;;;4.10;;
59786;SDS011;45672;51.612;5.536;2023-08-21T03:55:59;7.85;;;4.82;;
59786;SDS011;45672;51.612;5.536;2023-08-21T03:58:24;7.57;;;4.65;;
59786;SDS011;45672;51.612;5.536;2023-08-21T04:00:51;9.27;;;4.70;;
59786;SDS011;45672;51.612;5.536;2023-08-21T04:03:17;7.65;;;4.68;;
59786;SDS011;45672;51.612;5.536;2023-08-21T04:05:42;8.73;;;4.53;;
59786;SDS011;45672;51.612;5.536;2023-08-21T04:08:07;5.65;;;4.25;;
59786;SDS011;45672;51.612;5.536;2023-08-21T04:10:33;11.10;;;4.72;;
59786;SDS011;45672;51.612;5.536;2023-08-21T04:12:58;13.05;;;4.50;;
59786;SDS011;45672;51.612;5.536;2023-08-21T04:15:23;7.30;;;4.60;;
59786;SDS011;45672;51.612;5.536;2023-08-21T04:17:49;11.00;;;4.85;;
59786;SDS011;45672;51.612;5.536;2023-08-21T04:20:14;9.50;;;4.78;;
59786;SDS011;45672;51.612;5.536;2023-08-21T04:22:40;8.70;;;5.07;;
59786;SDS011;45672;51.612;5.536;2023-08-21T04:25:05;14.35;;;5.07;;
59786;SDS011;45672;51.612;5.536;2023-08-21T04:27:32;7.18;;;4.80;;
59786;SDS011;45672;51.612;5.536;2023-08-21T04:29:58;8.18;;;4.65;;
59786;SDS011;45672;51.612;5.536;2023-08-21T04:32:24;13.20;;;4.90;;
59786;SDS011;45672;51.612;5.536;2023-08-21T04:34:49;10.80;;;5.50;;
59786;SDS011;45672;51.612;5.536;2023-08-21T04:37:15;10.60;;;5.30;;
59786;SDS011;45672;51.612;5.536;2023-08-21T04:39:40;11.98;;;5.45;;
59786;SDS011;45672;51.612;5.536;2023-08-21T04:42:05;11.68;;;5.10;;
59786;SDS011;45672;51.612;5.536;2023-08-21T04:44:31;15.75;;;5.40;;
59786;SDS011;45672;51.612;5.536;2023-08-21T04:46:56;7.68;;;5.22;;
59786;SDS011;45672;51.612;5.536;2023-08-21T04:49:22;15.18;;;5.85;;
59786;SDS011;45672;51.612;5.536;2023-08-21T04:51:47;12.38;;;5.43;;
59786;SDS011;45672;51.612;5.536;2023-08-21T04:54:12;13.13;;;5.22;;
59786;SDS011;45672;51.612;5.536;2023-08-21T04:56:38;12.55;;;5.43;;
59786;SDS011;45672;51.612;5.536;2023-08-21T04:59:03;15.05;;;5.43;;
59786;SDS011;45672;51.612;5.536;2023-08-21T05:01:28;11.82;;;5.50;;
59786;SDS011;45672;51.612;5.536;2023-08-21T05:03:54;18.83;;;5.65;;
59786;SDS011;45672;51.612;5.536;2023-08-21T05:06:20;11.98;;;5.40;;
59786;SDS011;45672;51.612;5.536;2023-08-21T05:08:45;11.55;;;4.90;;
59786;SDS011;45672;51.612;5.536;2023-08-21T05:11:10;10.82;;;5.72;;
59786;SDS011;45672;51.612;5.536;2023-08-21T05:13:36;11.65;;;5.63;;
59786;SDS011;45672;51.612;5.536;2023-08-21T05:16:01;10.65;;;5.65;;
59786;SDS011;45672;51.612;5.536;2023-08-21T05:18:27;13.85;;;5.85;;
59786;SDS011;45672;51.612;5.536;2023-08-21T05:20:53;11.40;;;5.85;;
59786;SDS011;45672;51.612;5.536;2023-08-21T05:23:20;12.80;;;6.30;;
59786;SDS011;45672;51.612;5.536;2023-08-21T05:25:46;11.82;;;5.97;;
59786;SDS011;45672;51.612;5.536;2023-08-21T05:28:13;13.15;;;6.38;;
59786;SDS011;45672;51.612;5.536;2023-08-21T05:30:38;15.23;;;5.95;;
59786;SDS011;45672;51.612;5.536;2023-08-21T05:33:03;9.45;;;6.28;;
59786;SDS011;45672;51.612;5.536;2023-08-21T05:35:32;10.98;;;6.60;;
59786;SDS011;45672;51.612;5.536;2023-08-21T05:37:59;11.85;;;6.15;;
59786;SDS011;45672;51.612;5.536;2023-08-21T05:40:24;11.48;;;6.07;;
59786;SDS011;45672;51.612;5.536;2023-08-21T05:42:49;19.52;;;6.40;;
59786;SDS011;45672;51.612;5.536;2023-08-21T05:45:15;11.85;;;6.30;;
59786;SDS011;45672;51.612;5.536;2023-08-21T05:47:40;7.82;;;5.90;;
59786;SDS011;45672;51.612;5.536;2023-08-21T05:50:05;13.57;;;6.05;;
59786;SDS011;45672;51.612;5.536;2023-08-21T05:52:31;10.82;;;6.75;;
59786;SDS011;45672;51.612;5.536;2023-08-21T05:54:56;9.20;;;6.13;;
59786;SDS011;45672;51.612;5.536;2023-08-21T05:57:21;15.85;;;6.50;;
59786;SDS011;45672;51.612;5.536;2023-08-21T05:59:47;11.40;;;6.28;;
59786;SDS011;45672;51.612;5.536;2023-08-21T06:02:13;17.23;;;7.05;;
59786;SDS011;45672;51.612;5.536;2023-08-21T06:04:39;11.07;;;6.50;;
59786;SDS011;45672;51.612;5.536;2023-08-21T06:07:05;11.57;;;6.57;;
59786;SDS011;45672;51.612;5.536;2023-08-21T06:09:31;9.23;;;6.00;;
59786;SDS011;45672;51.612;5.536;2023-08-21T06:11:58;11.80;;;6.00;;
59786;SDS011;45672;51.612;5.536;2023-08-21T06:14:33;15.48;;;6.03;;
59786;SDS011;45672;51.612;5.536;2023-08-21T06:16:59;14.20;;;5.85;;
59786;SDS011;45672;51.612;5.536;2023-08-21T06:19:29;16.02;;;6.15;;
59786;SDS011;45672;51.612;5.536;2023-08-21T06:21:55;10.48;;;5.47;;
59786;SDS011;45672;51.612;5.536;2023-08-21T06:24:21;9.07;;;5.25;;
59786;SDS011;45672;51.612;5.536;2023-08-21T06:26:47;10.63;;;5.50;;
59786;SDS011;45672;51.612;5.536;2023-08-21T06:29:12;11.20;;;5.68;;
59786;SDS011;45672;51.612;5.536;2023-08-21T06:31:37;11.27;;;5.95;;
59786;SDS011;45672;51.612;5.536;2023-08-21T06:34:02;13.63;;;5.70;;
59786;SDS011;45672;51.612;5.536;2023-08-21T06:36:28;10.27;;;5.68;;
59786;SDS011;45672;51.612;5.536;2023-08-21T06:38:54;9.02;;;5.78;;
59786;SDS011;45672;51.612;5.536;2023-08-21T06:41:20;8.82;;;5.25;;
59786;SDS011;45672;51.612;5.536;2023-08-21T06:43:46;12.90;;;5.47;;
59786;SDS011;45672;51.612;5.536;2023-08-21T06:46:11;8.30;;;4.97;;
59786;SDS011;45672;51.612;5.536;2023-08-21T06:48:37;12.30;;;5.00;;
59786;SDS011;45672;51.612;5.536;2023-08-21T06:51:04;12.27;;;4.88;;
59786;SDS011;45672;51.612;5.536;2023-08-21T06:53:30;11.43;;;4.80;;
59786;SDS011;45672;51.612;5.536;2023-08-21T06:55:55;11.23;;;4.70;;
59786;SDS011;45672;51.612;5.536;2023-08-21T06:58:21;8.30;;;3.97;;
59786;SDS011;45672;51.612;5.536;2023-08-21T07:00:46;7.72;;;3.60;;
59786;SDS011;45672;51.612;5.536;2023-08-21T07:03:12;6.70;;;3.15;;
59786;SDS011;45672;51.612;5.536;2023-08-21T07:05:37;6.10;;;2.92;;
59786;SDS011;45672;51.612;5.536;2023-08-21T07:08:03;12.45;;;3.30;;
59786;SDS011;45672;51.612;5.536;2023-08-21T07:10:28;6.28;;;2.80;;
59786;SDS011;45672;51.612;5.536;2023-08-21T07:12:54;8.95;;;2.95;;
59786;SDS011;45672;51.612;5.536;2023-08-21T07:15:19;6.90;;;2.45;;
59786;SDS011;45672;51.612;5.536;2023-08-21T07:17:45;6.63;;;2.50;;
59786;SDS011;45672;51.612;5.536;2023-08-21T07:20:10;7.55;;;2.63;;
59786;SDS011;45672;51.612;5.536;2023-08-21T07:22:36;8.70;;;2.70;;
59786;SDS011;45672;51.612;5.536;2023-08-21T07:25:01;7.20;;;2.45;;
59786;SDS011;45672;51.612;5.536;2023-08-21T07:27:30;5.97;;;2.33;;
59786;SDS011;45672;51.612;5.536;2023-08-21T07:29:56;8.00;;;2.70;;
59786;SDS011;45672;51.612;5.536;2023-08-21T07:32:21;6.32;;;2.40;;
59786;SDS011;45672;51.612;5.536;2023-08-21T07:34:46;8.93;;;2.17;;
59786;SDS011;45672;51.612;5.536;2023-08-21T07:37:12;7.38;;;2.20;;
59786;SDS011;45672;51.612;5.536;2023-08-21T07:39:37;4.68;;;1.90;;
59786;SDS011;45672;51.612;5.536;2023-08-21T07:42:02;7.75;;;1.98;;
59786;SDS011;45672;51.612;5.536;2023-08-21T07:44:28;7.68;;;2.35;;
59786;SDS011;45672;51.612;5.536;2023-08-21T07:46:53;6.45;;;2.10;;
59786;SDS011;45672;51.612;5.536;2023-08-21T07:49:18;9.63;;;2.10;;
59786;SDS011;45672;51.612;5.536;2023-08-21T07:51:44;6.47;;;2.10;;
59786;SDS011;45672;51.612;5.536;2023-08-21T07:54:09;11.15;;;2.38;;
59786;SDS011;45672;51.612;5.536;2023-08-21T07:56:34;7.72;;;2.45;;
59786;SDS011;45672;51.612;5.536;2023-08-21T07:59:02;6.07;;;2.25;;
59786;SDS011;45672;51.612;5.536;2023-08-21T08:01:28;6.55;;;2.15;;
59786;SDS011;45672;51.612;5.536;2023-08-21T08:03:53;7.88;;;2.72;;
59786;SDS011;45672;51.612;5.536;2023-08-21T08:06:18;8.85;;;2.28;;
59786;SDS011;45672;51.612;5.536;2023-08-21T08:08:44;13.32;;;2.20;;
59786;SDS011;45672;51.612;5.536;2023-08-21T08:11:09;8.35;;;2.20;;
59786;SDS011;45672;51.612;5.536;2023-08-21T08:13:34;5.97;;;1.83;;
59786;SDS011;45672;51.612;5.536;2023-08-21T08:16:00;5.53;;;1.98;;
59786;SDS011;45672;51.612;5.536;2023-08-21T08:18:25;6.45;;;1.60;;
59786;SDS011;45672;51.612;5.536;2023-08-21T08:20:51;6.93;;;1.85;;
59786;SDS011;45672;51.612;5.536;2023-08-21T08:23:16;6.35;;;1.27;;
59786;SDS011;45672;51.612;5.536;2023-08-21T08:25:42;8.07;;;1.58;;
59786;SDS011;45672;51.612;5.536;2023-08-21T08:28:07;7.60;;;2.08;;
59786;SDS011;45672;51.612;5.536;2023-08-21T08:30:33;4.43;;;1.40;;
59786;SDS011;45672;51.612;5.536;2023-08-21T08:32:59;8.40;;;1.35;;
59786;SDS011;45672;51.612;5.536;2023-08-21T08:35:24;10.02;;;1.50;;
59786;SDS011;45672;51.612;5.536;2023-08-21T08:37:50;5.57;;;1.45;;
59786;SDS011;45672;51.612;5.536;2023-08-21T08:40:15;3.85;;;1.38;;
59786;SDS011;45672;51.612;5.536;2023-08-21T08:42:41;6.90;;;1.38;;
59786;SDS011;45672;51.612;5.536;2023-08-21T08:45:07;5.90;;;1.05;;
59786;SDS011;45672;51.612;5.536;2023-08-21T08:47:32;4.80;;;1.20;;
59786;SDS011;45672;51.612;5.536;2023-08-21T08:49:59;4.75;;;1.50;;
59786;SDS011;45672;51.612;5.536;2023-08-21T08:52:28;4.03;;;1.30;;
59786;SDS011;45672;51.612;5.536;2023-08-21T08:54:55;4.93;;;1.30;;
59786;SDS011;45672;51.612;5.536;2023-08-21T08:57:22;9.73;;;1.55;;
59786;SDS011;45672;51.612;5.536;2023-08-21T08:59:48;6.30;;;1.33;;
59786;SDS011;45672;51.612;5.536;2023-08-21T09:02:13;9.15;;;1.70;;
59786;SDS011;45672;51.612;5.536;2023-08-21T09:04:38;5.50;;;1.42;;
59786;SDS011;45672;51.612;5.536;2023-08-21T09:07:10;3.45;;;1.42;;
59786;SDS011;45672;51.612;5.536;2023-08-21T09:09:38;5.93;;;1.25;;
59786;SDS011;45672;51.612;5.536;2023-08-21T09:12:11;5.18;;;1.52;;
59786;SDS011;45672;51.612;5.536;2023-08-21T09:14:38;9.55;;;1.60;;
59786;SDS011;45672;51.612;5.536;2023-08-21T09:17:08;3.70;;;1.30;;
59786;SDS011;45672;51.612;5.536;2023-08-21T09:19:33;10.80;;;2.75;;
59786;SDS011;45672;51.612;5.536;2023-08-21T09:22:12;54.53;;;16.85;;
59786;SDS011;45672;51.612;5.536;2023-08-21T09:24:39;6.95;;;1.55;;
59786;SDS011;45672;51.612;5.536;2023-08-21T09:27:15;4.32;;;1.60;;
59786;SDS011;45672;51.612;5.536;2023-08-21T09:29:41;10.13;;;1.95;;
59786;SDS011;45672;51.612;5.536;2023-08-21T09:32:07;5.20;;;1.30;;
59786;SDS011;45672;51.612;5.536;2023-08-21T09:34:36;7.13;;;1.63;;
59786;SDS011;45672;51.612;5.536;2023-08-21T09:37:05;7.28;;;1.70;;
59786;SDS011;45672;51.612;5.536;2023-08-21T09:39:32;7.13;;;1.80;;
59786;SDS011;45672;51.612;5.536;2023-08-21T09:42:04;5.55;;;1.35;;
59786;SDS011;45672;51.612;5.536;2023-08-21T09:44:40;10.45;;;1.92;;
59786;SDS011;45672;51.612;5.536;2023-08-21T09:47:09;5.78;;;1.63;;
59786;SDS011;45672;51.612;5.536;2023-08-21T09:49:36;5.75;;;1.42;;
59786;SDS011;45672;51.612;5.536;2023-08-21T09:52:03;5.50;;;1.50;;
59786;SDS011;45672;51.612;5.536;2023-08-21T09:54:30;5.32;;;1.70;;
59786;SDS011;45672;51.612;5.536;2023-08-21T09:56:58;7.10;;;1.55;;
59786;SDS011;45672;51.612;5.536;2023-08-21T09:59:27;5.13;;;1.50;;
59786;SDS011;45672;51.612;5.536;2023-08-21T10:01:54;5.45;;;1.55;;
59786;SDS011;45672;51.612;5.536;2023-08-21T10:04:22;5.47;;;1.65;;
59786;SDS011;45672;51.612;5.536;2023-08-21T10:06:47;8.00;;;2.00;;
59786;SDS011;45672;51.612;5.536;2023-08-21T10:09:16;8.07;;;1.60;;
59786;SDS011;45672;51.612;5.536;2023-08-21T10:11:42;5.30;;;1.40;;
59786;SDS011;45672;51.612;5.536;2023-08-21T10:14:08;6.22;;;1.58;;
59786;SDS011;45672;51.612;5.536;2023-08-21T10:16:35;7.88;;;1.77;;
59786;SDS011;45672;51.612;5.536;2023-08-21T10:19:03;8.68;;;1.80;;
59786;SDS011;45672;51.612;5.536;2023-08-21T10:21:36;6.97;;;1.60;;
59786;SDS011;45672;51.612;5.536;2023-08-21T10:24:02;8.13;;;2.10;;
59786;SDS011;45672;51.612;5.536;2023-08-21T10:26:28;6.15;;;1.50;;
59786;SDS011;45672;51.612;5.536;2023-08-21T10:28:54;5.65;;;1.20;;
59786;SDS011;45672;51.612;5.536;2023-08-21T10:31:27;3.40;;;1.00;;
59786;SDS011;45672;51.612;5.536;2023-08-21T10:33:58;3.58;;;1.27;;
59786;SDS011;45672;51.612;5.536;2023-08-21T10:39:52;4.45;;;1.40;;
59786;SDS011;45672;51.612;5.536;2023-08-21T10:49:52;8.70;;;2.78;;
59786;SDS011;45672;51.612;5.536;2023-08-21T10:54:57;3.35;;;1.30;;
59786;SDS011;45672;51.612;5.536;2023-08-21T10:57:24;4.88;;;1.30;;
59786;SDS011;45672;51.612;5.536;2023-08-21T10:59:57;6.53;;;1.73;;
59786;SDS011;45672;51.612;5.536;2023-08-21T11:02:26;3.65;;;1.65;;
59786;SDS011;45672;51.612;5.536;2023-08-21T11:04:54;3.13;;;1.10;;
59786;SDS011;45672;51.612;5.536;2023-08-21T11:07:20;3.63;;;1.25;;
59786;SDS011;45672;51.612;5.536;2023-08-21T11:09:46;5.63;;;1.00;;
59786;SDS011;45672;51.612;5.536;2023-08-21T11:12:16;4.13;;;1.20;;
59786;SDS011;45672;51.612;5.536;2023-08-21T11:14:43;4.13;;;1.20;;
59786;SDS011;45672;51.612;5.536;2023-08-21T11:17:08;5.43;;;1.42;;
59786;SDS011;45672;51.612;5.536;2023-08-21T11:19:34;4.15;;;1.30;;
59786;SDS011;45672;51.612;5.536;2023-08-21T11:22:01;4.78;;;1.15;;
59786;SDS011;45672;51.612;5.536;2023-08-21T11:27:02;10.65;;;1.70;;
59786;SDS011;45672;51.612;5.536;2023-08-21T11:29:29;4.03;;;1.35;;
59786;SDS011;45672;51.612;5.536;2023-08-21T11:31:57;3.05;;;1.00;;
59786;SDS011;45672;51.612;5.536;2023-08-21T11:34:23;3.28;;;1.35;;
59786;SDS011;45672;51.612;5.536;2023-08-21T11:36:48;4.50;;;1.13;;
59786;SDS011;45672;51.612;5.536;2023-08-21T11:39:14;2.92;;;1.20;;
59786;SDS011;45672;51.612;5.536;2023-08-21T11:41:55;4.88;;;1.20;;
59786;SDS011;45672;51.612;5.536;2023-08-21T11:44:21;3.58;;;1.10;;
59786;SDS011;45672;51.612;5.536;2023-08-21T11:46:47;4.43;;;1.23;;
59786;SDS011;45672;51.612;5.536;2023-08-21T11:49:12;3.83;;;1.25;;
59786;SDS011;45672;51.612;5.536;2023-08-21T11:51:38;3.58;;;1.30;;
59786;SDS011;45672;51.612;5.536;2023-08-21T11:54:04;6.63;;;1.38;;
59786;SDS011;45672;51.612;5.536;2023-08-21T11:56:31;4.60;;;1.20;;
59786;SDS011;45672;51.612;5.536;2023-08-21T11:58:56;3.20;;;1.35;;
59786;SDS011;45672;51.612;5.536;2023-08-21T12:01:24;2.30;;;1.13;;
59786;SDS011;45672;51.612;5.536;2023-08-21T12:03:49;5.72;;;1.80;;
59786;SDS011;45672;51.612;5.536;2023-08-21T12:06:21;6.97;;;1.40;;
59786;SDS011;45672;51.612;5.536;2023-08-21T12:08:47;4.50;;;1.35;;
59786;SDS011;45672;51.612;5.536;2023-08-21T12:11:12;5.43;;;1.60;;
59786;SDS011;45672;51.612;5.536;2023-08-21T12:13:37;6.82;;;1.48;;
59786;SDS011;45672;51.612;5.536;2023-08-21T12:16:03;4.93;;;1.60;;
59786;SDS011;45672;51.612;5.536;2023-08-21T12:18:29;5.68;;;1.60;;
59786;SDS011;45672;51.612;5.536;2023-08-21T12:20:54;4.53;;;1.48;;
59786;SDS011;45672;51.612;5.536;2023-08-21T12:23:19;5.63;;;1.63;;
59786;SDS011;45672;51.612;5.536;2023-08-21T12:25:45;4.43;;;1.33;;
59786;SDS011;45672;51.612;5.536;2023-08-21T12:28:10;4.78;;;1.45;;
59786;SDS011;45672;51.612;5.536;2023-08-21T12:30:36;4.78;;;1.55;;
59786;SDS011;45672;51.612;5.536;2023-08-21T12:33:01;3.58;;;1.50;;
59786;SDS011;45672;51.612;5.536;2023-08-21T12:35:27;2.80;;;1.65;;
59786;SDS011;45672;51.612;5.536;2023-08-21T12:37:56;5.68;;;1.60;;
59786;SDS011;45672;51.612;5.536;2023-08-21T12:40:23;5.33;;;1.63;;
59786;SDS011;45672;51.612;5.536;2023-08-21T12:42:48;4.50;;;1.70;;
59786;SDS011;45672;51.612;5.536;2023-08-21T12:45:15;2.97;;;1.35;;
59786;SDS011;45672;51.612;5.536;2023-08-21T12:47:41;3.42;;;1.60;;
59786;SDS011;45672;51.612;5.536;2023-08-21T12:50:06;5.25;;;1.60;;
59786;SDS011;45672;51.612;5.536;2023-08-21T12:52:32;7.68;;;1.67;;
59786;SDS011;45672;51.612;5.536;2023-08-21T12:54:57;4.18;;;1.40;;
59786;SDS011;45672;51.612;5.536;2023-08-21T12:57:24;4.63;;;1.40;;
59786;SDS011;45672;51.612;5.536;2023-08-21T12:59:51;9.93;;;1.65;;
59786;SDS011;45672;51.612;5.536;2023-08-21T13:02:16;7.22;;;1.70;;
59786;SDS011;45672;51.612;5.536;2023-08-21T13:04:42;5.97;;;1.85;;
59786;SDS011;45672;51.612;5.536;2023-08-21T13:07:07;5.95;;;1.60;;
59786;SDS011;45672;51.612;5.536;2023-08-21T13:09:33;5.20;;;1.40;;
59786;SDS011;45672;51.612;5.536;2023-08-21T13:11:59;6.07;;;1.40;;
59786;SDS011;45672;51.612;5.536;2023-08-21T13:14:24;4.25;;;1.48;;
59786;SDS011;45672;51.612;5.536;2023-08-21T13:16:49;3.70;;;1.60;;
59786;SDS011;45672;51.612;5.536;2023-08-21T13:19:15;6.97;;;1.90;;
59786;SDS011;45672;51.612;5.536;2023-08-21T13:21:40;5.35;;;1.60;;
59786;SDS011;45672;51.612;5.536;2023-08-21T13:24:06;5.25;;;1.38;;
59786;SDS011;45672;51.612;5.536;2023-08-21T13:26:32;6.07;;;1.52;;
59786;SDS011;45672;51.612;5.536;2023-08-21T13:28:57;5.10;;;1.65;;
59786;SDS011;45672;51.612;5.536;2023-08-21T13:31:23;2.22;;;1.10;;
59786;SDS011;45672;51.612;5.536;2023-08-21T13:33:49;6.03;;;1.30;;
59786;SDS011;45672;51.612;5.536;2023-08-21T13:36:15;3.40;;;1.00;;
59786;SDS011;45672;51.612;5.536;2023-08-21T13:38:42;5.15;;;1.50;;
59786;SDS011;45672;51.612;5.536;2023-08-21T13:41:08;6.28;;;1.50;;
59786;SDS011;45672;51.612;5.536;2023-08-21T13:43:34;4.57;;;1.35;;
59786;SDS011;45672;51.612;5.536;2023-08-21T13:46:00;4.05;;;1.23;;
59786;SDS011;45672;51.612;5.536;2023-08-21T13:48:26;7.35;;;1.70;;
59786;SDS011;45672;51.612;5.536;2023-08-21T13:50:51;5.93;;;1.30;;
59786;SDS011;45672;51.612;5.536;2023-08-21T13:53:17;5.47;;;1.60;;
59786;SDS011;45672;51.612;5.536;2023-08-21T13:55:42;3.00;;;1.20;;
59786;SDS011;45672;51.612;5.536;2023-08-21T13:58:07;4.55;;;1.10;;
59786;SDS011;45672;51.612;5.536;2023-08-21T14:00:33;3.65;;;1.90;;
59786;SDS011;45672;51.612;5.536;2023-08-21T14:02:58;3.35;;;1.58;;
59786;SDS011;45672;51.612;5.536;2023-08-21T14:05:23;5.82;;;1.80;;
59786;SDS011;45672;51.612;5.536;2023-08-21T14:07:51;4.10;;;1.50;;
59786;SDS011;45672;51.612;5.536;2023-08-21T14:10:16;4.47;;;1.38;;
59786;SDS011;45672;51.612;5.536;2023-08-21T14:12:41;5.75;;;1.58;;
59786;SDS011;45672;51.612;5.536;2023-08-21T14:15:07;6.03;;;1.58;;
59786;SDS011;45672;51.612;5.536;2023-08-21T14:17:33;5.30;;;1.15;;
59786;SDS011;45672;51.612;5.536;2023-08-21T14:19:58;5.43;;;1.73;;
59786;SDS011;45672;51.612;5.536;2023-08-21T14:22:23;3.70;;;1.25;;
59786;SDS011;45672;51.612;5.536;2023-08-21T14:24:49;3.88;;;1.20;;
59786;SDS011;45672;51.612;5.536;2023-08-21T14:27:14;2.22;;;1.00;;
59786;SDS011;45672;51.612;5.536;2023-08-21T14:29:41;6.70;;;1.35;;
59786;SDS011;45672;51.612;5.536;2023-08-21T14:32:07;3.47;;;1.35;;
59786;SDS011;45672;51.612;5.536;2023-08-21T14:34:33;5.55;;;1.17;;
59786;SDS011;45672;51.612;5.536;2023-08-21T14:36:58;6.13;;;0.90;;
59786;SDS011;45672;51.612;5.536;2023-08-21T14:39:24;3.95;;;1.05;;
59786;SDS011;45672;51.612;5.536;2023-08-21T14:41:56;2.63;;;0.98;;
59786;SDS011;45672;51.612;5.536;2023-08-21T14:44:22;3.17;;;1.27;;
59786;SDS011;45672;51.612;5.536;2023-08-21T14:46:48;4.00;;;1.00;;
59786;SDS011;45672;51.612;5.536;2023-08-21T14:49:13;2.13;;;1.00;;
59786;SDS011;45672;51.612;5.536;2023-08-21T14:51:38;2.88;;;1.10;;
59786;SDS011;45672;51.612;5.536;2023-08-21T14:54:04;6.00;;;1.08;;
59786;SDS011;45672;51.612;5.536;2023-08-21T14:56:30;1.95;;;0.82;;
59786;SDS011;45672;51.612;5.536;2023-08-21T14:58:55;4.15;;;0.70;;